Terminal Aerodrome Forecast
Issued by NWS

Home | Current Version | Previous Version | Text Only | Print | Product List | Glossary On
Versions: 1 2 3 4 5 6 7 8 9 10 11 12 13 14 15 16 17 18 19 20 21 22 23 24 25 26
450
FTUS46 KSGX 241430 AAA
TAFSAN
TAF AMD
KSAN 241430Z 2415/2518 29006KT P6SM OVC010
     FM241830 28007KT P6SM SCT010 SCT200
     FM241900 28011KT P6SM SCT015 SCT200
     FM250330 27007KT P6SM OVC015=

USA.gov is the U.S. government's official web portal to all federal, state and local government web resources and services.